sensor_id;sensor_type;location;lat;lon;timestamp;temperature;humidity
20833;DHT22;56075;51.264;7.150;2022-08-21T00:00:27;18.20;99.50
20833;DHT22;56075;51.264;7.150;2022-08-21T00:03:05;18.80;99.80
20833;DHT22;56075;51.264;7.150;2022-08-21T00:05:39;18.30;99.80
20833;DHT22;56075;51.264;7.150;2022-08-21T00:08:11;19.40;99.90
20833;DHT22;56075;51.264;7.150;2022-08-21T00:10:44;20.10;99.90
20833;DHT22;56075;51.264;7.150;2022-08-21T00:13:16;18.30;99.90
20833;DHT22;56075;51.264;7.150;2022-08-21T00:15:48;18.30;99.90
20833;DHT22;56075;51.264;7.150;2022-08-21T00:18:20;18.00;99.90
20833;DHT22;56075;51.264;7.150;2022-08-21T00:20:51;16.10;99.90
20833;DHT22;56075;51.264;7.150;2022-08-21T00:23:23;17.90;99.90
20833;DHT22;56075;51.264;7.150;2022-08-21T00:25:54;18.00;99.90
20833;DHT22;56075;51.264;7.150;2022-08-21T00:28:25;17.90;99.90
20833;DHT22;56075;51.264;7.150;2022-08-21T00:30:56;19.60;99.90
20833;DHT22;56075;51.264;7.150;2022-08-21T00:33:28;18.60;99.90
20833;DHT22;56075;51.264;7.150;2022-08-21T00:35:59;19.70;99.90
20833;DHT22;56075;51.264;7.150;2022-08-21T00:38:30;18.00;99.90
20833;DHT22;56075;51.264;7.150;2022-08-21T00:41:03;17.90;99.90
20833;DHT22;56075;51.264;7.150;2022-08-21T00:43:36;18.10;99.90
20833;DHT22;56075;51.264;7.150;2022-08-21T00:46:07;18.00;99.90
20833;DHT22;56075;51.264;7.150;2022-08-21T00:48:39;19.70;99.90
20833;DHT22;56075;51.264;7.150;2022-08-21T00:51:24;17.90;99.90
20833;DHT22;56075;51.264;7.150;2022-08-21T00:53:59;18.90;99.90
20833;DHT22;56075;51.264;7.150;2022-08-21T00:56:33;17.90;99.90
20833;DHT22;56075;51.264;7.150;2022-08-21T00:59:05;18.00;99.90
20833;DHT22;56075;51.264;7.150;2022-08-21T01:01:37;19.70;99.90
20833;DHT22;56075;51.264;7.150;2022-08-21T01:04:08;19.40;99.90
20833;DHT22;56075;51.264;7.150;2022-08-21T01:06:39;17.60;99.90
20833;DHT22;56075;51.264;7.150;2022-08-21T01:09:11;17.70;99.90
20833;DHT22;56075;51.264;7.150;2022-08-21T01:11:42;17.70;99.90
20833;DHT22;56075;51.264;7.150;2022-08-21T01:14:14;18.90;99.90
20833;DHT22;56075;51.264;7.150;2022-08-21T01:16:48;17.80;99.90
20833;DHT22;56075;51.264;7.150;2022-08-21T01:19:22;18.10;99.90
20833;DHT22;56075;51.264;7.150;2022-08-21T01:21:53;17.70;99.90
20833;DHT22;56075;51.264;7.150;2022-08-21T01:24:25;17.90;99.90
20833;DHT22;56075;51.264;7.150;2022-08-21T01:26:58;17.70;99.90
20833;DHT22;56075;51.264;7.150;2022-08-21T01:32:15;17.90;99.90
20833;DHT22;56075;51.264;7.150;2022-08-21T01:34:49;18.00;99.90
20833;DHT22;56075;51.264;7.150;2022-08-21T01:37:21;18.70;99.90
20833;DHT22;56075;51.264;7.150;2022-08-21T01:39:52;19.00;99.90
20833;DHT22;56075;51.264;7.150;2022-08-21T01:42:24;19.70;99.90
20833;DHT22;56075;51.264;7.150;2022-08-21T01:44:55;18.00;99.90
20833;DHT22;56075;51.264;7.150;2022-08-21T01:47:27;17.70;99.90
20833;DHT22;56075;51.264;7.150;2022-08-21T01:49:58;17.60;99.90
20833;DHT22;56075;51.264;7.150;2022-08-21T01:52:29;19.30;99.90
20833;DHT22;56075;51.264;7.150;2022-08-21T01:55:00;19.50;99.90
20833;DHT22;56075;51.264;7.150;2022-08-21T01:57:32;17.30;99.90
20833;DHT22;56075;51.264;7.150;2022-08-21T02:00:05;18.30;99.90
20833;DHT22;56075;51.264;7.150;2022-08-21T02:02:43;17.50;99.90
20833;DHT22;56075;51.264;7.150;2022-08-21T02:05:14;18.00;99.90
20833;DHT22;56075;51.264;7.150;2022-08-21T02:07:49;17.20;99.90
20833;DHT22;56075;51.264;7.150;2022-08-21T02:10:27;17.20;99.90
20833;DHT22;56075;51.264;7.150;2022-08-21T02:12:59;17.20;99.90
20833;DHT22;56075;51.264;7.150;2022-08-21T02:15:33;17.20;99.90
20833;DHT22;56075;51.264;7.150;2022-08-21T02:18:05;17.30;99.90
20833;DHT22;56075;51.264;7.150;2022-08-21T02:20:43;17.20;99.90
20833;DHT22;56075;51.264;7.150;2022-08-21T02:23:15;18.30;99.90
20833;DHT22;56075;51.264;7.150;2022-08-21T02:25:46;17.30;99.90
20833;DHT22;56075;51.264;7.150;2022-08-21T02:28:17;18.00;99.90
20833;DHT22;56075;51.264;7.150;2022-08-21T02:30:49;17.00;99.90
20833;DHT22;56075;51.264;7.150;2022-08-21T02:33:20;16.90;99.90
20833;DHT22;56075;51.264;7.150;2022-08-21T02:35:52;17.00;99.90
20833;DHT22;56075;51.264;7.150;2022-08-21T02:38:27;18.60;99.90
20833;DHT22;56075;51.264;7.150;2022-08-21T02:40:59;17.90;99.90
20833;DHT22;56075;51.264;7.150;2022-08-21T02:43:30;17.50;99.90
20833;DHT22;56075;51.264;7.150;2022-08-21T02:46:04;18.60;99.90
20833;DHT22;56075;51.264;7.150;2022-08-21T02:48:36;16.80;99.90
20833;DHT22;56075;51.264;7.150;2022-08-21T02:51:11;16.60;99.90
20833;DHT22;56075;51.264;7.150;2022-08-21T02:53:44;16.60;99.90
20833;DHT22;56075;51.264;7.150;2022-08-21T02:56:18;17.70;99.90
20833;DHT22;56075;51.264;7.150;2022-08-21T02:58:51;18.50;99.90
20833;DHT22;56075;51.264;7.150;2022-08-21T03:01:23;16.80;99.90
20833;DHT22;56075;51.264;7.150;2022-08-21T03:03:54;17.10;99.90
20833;DHT22;56075;51.264;7.150;2022-08-21T03:06:25;16.60;99.90
20833;DHT22;56075;51.264;7.150;2022-08-21T03:08:56;17.70;99.90
20833;DHT22;56075;51.264;7.150;2022-08-21T03:11:28;17.50;99.90
20833;DHT22;56075;51.264;7.150;2022-08-21T03:13:59;16.60;99.90
20833;DHT22;56075;51.264;7.150;2022-08-21T03:16:30;17.20;99.90
20833;DHT22;56075;51.264;7.150;2022-08-21T03:19:02;17.80;99.90
20833;DHT22;56075;51.264;7.150;2022-08-21T03:21:34;18.60;99.90
20833;DHT22;56075;51.264;7.150;2022-08-21T03:24:05;16.80;99.90
20833;DHT22;56075;51.264;7.150;2022-08-21T03:26:37;16.90;99.90
20833;DHT22;56075;51.264;7.150;2022-08-21T03:29:08;16.60;99.90
20833;DHT22;56075;51.264;7.150;2022-08-21T03:31:39;16.80;99.90
20833;DHT22;56075;51.264;7.150;2022-08-21T03:34:11;16.80;99.90
20833;DHT22;56075;51.264;7.150;2022-08-21T03:36:42;17.90;99.90
20833;DHT22;56075;51.264;7.150;2022-08-21T03:39:17;17.30;99.90
20833;DHT22;56075;51.264;7.150;2022-08-21T03:41:48;16.50;99.90
20833;DHT22;56075;51.264;7.150;2022-08-21T03:44:19;16.30;99.90
20833;DHT22;56075;51.264;7.150;2022-08-21T03:46:50;16.30;99.90
20833;DHT22;56075;51.264;7.150;2022-08-21T03:49:21;17.80;99.90
20833;DHT22;56075;51.264;7.150;2022-08-21T03:51:53;16.90;99.90
20833;DHT22;56075;51.264;7.150;2022-08-21T03:54:24;17.70;99.90
20833;DHT22;56075;51.264;7.150;2022-08-21T03:56:56;16.80;99.90
20833;DHT22;56075;51.264;7.150;2022-08-21T03:59:27;16.40;99.90
20833;DHT22;56075;51.264;7.150;2022-08-21T04:02:00;16.60;99.90
20833;DHT22;56075;51.264;7.150;2022-08-21T04:04:33;16.30;99.90
20833;DHT22;56075;51.264;7.150;2022-08-21T04:07:04;16.30;99.90
20833;DHT22;56075;51.264;7.150;2022-08-21T04:09:36;16.20;99.90
20833;DHT22;56075;51.264;7.150;2022-08-21T04:12:08;16.30;99.90
20833;DHT22;56075;51.264;7.150;2022-08-21T04:14:39;16.30;99.90
20833;DHT22;56075;51.264;7.150;2022-08-21T04:17:10;18.50;99.90
20833;DHT22;56075;51.264;7.150;2022-08-21T04:19:41;18.30;99.90
20833;DHT22;56075;51.264;7.150;2022-08-21T04:22:12;16.10;99.90
20833;DHT22;56075;51.264;7.150;2022-08-21T04:24:43;16.30;99.90
20833;DHT22;56075;51.264;7.150;2022-08-21T04:27:14;17.60;99.90
20833;DHT22;56075;51.264;7.150;2022-08-21T04:29:45;18.00;99.90
20833;DHT22;56075;51.264;7.150;2022-08-21T04:32:24;16.30;99.90
20833;DHT22;56075;51.264;7.150;2022-08-21T04:35:00;16.40;99.90
20833;DHT22;56075;51.264;7.150;2022-08-21T04:37:33;17.70;99.90
20833;DHT22;56075;51.264;7.150;2022-08-21T04:40:05;15.90;99.90
20833;DHT22;56075;51.264;7.150;2022-08-21T04:42:48;16.10;99.90
20833;DHT22;56075;51.264;7.150;2022-08-21T04:45:32;16.00;99.90
20833;DHT22;56075;51.264;7.150;2022-08-21T04:48:06;15.90;99.90
20833;DHT22;56075;51.264;7.150;2022-08-21T04:53:45;15.90;99.90
20833;DHT22;56075;51.264;7.150;2022-08-21T04:58:55;16.10;99.90
20833;DHT22;56075;51.264;7.150;2022-08-21T05:01:29;17.40;99.90
20833;DHT22;56075;51.264;7.150;2022-08-21T05:04:03;15.80;99.90
20833;DHT22;56075;51.264;7.150;2022-08-21T05:06:36;15.80;99.90
20833;DHT22;56075;51.264;7.150;2022-08-21T05:09:09;15.80;99.90
20833;DHT22;56075;51.264;7.150;2022-08-21T05:11:43;15.80;99.90
20833;DHT22;56075;51.264;7.150;2022-08-21T05:14:15;17.80;99.90
20833;DHT22;56075;51.264;7.150;2022-08-21T05:16:47;16.10;99.90
20833;DHT22;56075;51.264;7.150;2022-08-21T05:19:18;15.60;99.90
20833;DHT22;56075;51.264;7.150;2022-08-21T05:21:49;16.50;99.90
20833;DHT22;56075;51.264;7.150;2022-08-21T05:24:21;17.30;99.90
20833;DHT22;56075;51.264;7.150;2022-08-21T05:26:52;15.70;99.90
20833;DHT22;56075;51.264;7.150;2022-08-21T05:29:23;17.50;99.90
20833;DHT22;56075;51.264;7.150;2022-08-21T05:31:54;15.60;99.90
20833;DHT22;56075;51.264;7.150;2022-08-21T05:34:26;16.00;99.90
20833;DHT22;56075;51.264;7.150;2022-08-21T05:36:57;16.90;99.90
20833;DHT22;56075;51.264;7.150;2022-08-21T05:39:28;15.90;99.90
20833;DHT22;56075;51.264;7.150;2022-08-21T05:42:00;15.90;99.90
20833;DHT22;56075;51.264;7.150;2022-08-21T05:44:33;15.90;99.90
20833;DHT22;56075;51.264;7.150;2022-08-21T05:47:09;15.70;99.90
20833;DHT22;56075;51.264;7.150;2022-08-21T05:49:40;15.90;99.90
20833;DHT22;56075;51.264;7.150;2022-08-21T05:52:11;15.80;99.90
20833;DHT22;56075;51.264;7.150;2022-08-21T05:54:42;17.60;99.90
20833;DHT22;56075;51.264;7.150;2022-08-21T05:57:14;16.20;99.90
20833;DHT22;56075;51.264;7.150;2022-08-21T05:59:45;16.40;99.90
20833;DHT22;56075;51.264;7.150;2022-08-21T06:02:20;16.00;99.90
20833;DHT22;56075;51.264;7.150;2022-08-21T06:04:51;16.00;99.90
20833;DHT22;56075;51.264;7.150;2022-08-21T06:07:23;15.90;99.90
20833;DHT22;56075;51.264;7.150;2022-08-21T06:09:54;17.20;99.90
20833;DHT22;56075;51.264;7.150;2022-08-21T06:12:25;16.20;99.90
20833;DHT22;56075;51.264;7.150;2022-08-21T06:14:56;17.90;99.90
20833;DHT22;56075;51.264;7.150;2022-08-21T06:17:27;17.10;99.90
20833;DHT22;56075;51.264;7.150;2022-08-21T06:19:59;17.10;99.90
20833;DHT22;56075;51.264;7.150;2022-08-21T06:22:30;16.40;99.90
20833;DHT22;56075;51.264;7.150;2022-08-21T06:25:01;16.10;99.90
20833;DHT22;56075;51.264;7.150;2022-08-21T06:27:32;16.10;99.90
20833;DHT22;56075;51.264;7.150;2022-08-21T06:30:05;17.00;99.90
20833;DHT22;56075;51.264;7.150;2022-08-21T06:32:37;16.50;99.90
20833;DHT22;56075;51.264;7.150;2022-08-21T06:35:09;18.20;99.90
20833;DHT22;56075;51.264;7.150;2022-08-21T06:37:40;16.30;99.90
20833;DHT22;56075;51.264;7.150;2022-08-21T06:40:11;16.80;99.90
20833;DHT22;56075;51.264;7.150;2022-08-21T06:42:42;18.20;99.90
20833;DHT22;56075;51.264;7.150;2022-08-21T06:45:14;16.60;99.90
20833;DHT22;56075;51.264;7.150;2022-08-21T06:47:45;16.60;99.90
20833;DHT22;56075;51.264;7.150;2022-08-21T06:50:16;18.20;99.90
20833;DHT22;56075;51.264;7.150;2022-08-21T06:52:48;17.40;99.90
20833;DHT22;56075;51.264;7.150;2022-08-21T06:55:19;16.80;99.90
20833;DHT22;56075;51.264;7.150;2022-08-21T06:57:50;16.70;99.90
20833;DHT22;56075;51.264;7.150;2022-08-21T07:00:21;16.70;99.90
20833;DHT22;56075;51.264;7.150;2022-08-21T07:02:52;18.30;99.90
20833;DHT22;56075;51.264;7.150;2022-08-21T07:05:27;19.30;99.90
20833;DHT22;56075;51.264;7.150;2022-08-21T07:07:59;17.70;99.90
20833;DHT22;56075;51.264;7.150;2022-08-21T07:10:30;18.40;99.90
20833;DHT22;56075;51.264;7.150;2022-08-21T07:13:04;17.20;99.90
20833;DHT22;56075;51.264;7.150;2022-08-21T07:15:36;17.10;99.90
20833;DHT22;56075;51.264;7.150;2022-08-21T07:18:07;17.20;99.90
20833;DHT22;56075;51.264;7.150;2022-08-21T07:20:39;18.70;99.90
20833;DHT22;56075;51.264;7.150;2022-08-21T07:23:22;17.40;99.90
20833;DHT22;56075;51.264;7.150;2022-08-21T07:25:53;17.30;99.90
20833;DHT22;56075;51.264;7.150;2022-08-21T07:28:25;17.30;99.90
20833;DHT22;56075;51.264;7.150;2022-08-21T07:30:58;18.90;99.90
20833;DHT22;56075;51.264;7.150;2022-08-21T07:33:32;18.00;99.90
20833;DHT22;56075;51.264;7.150;2022-08-21T07:36:03;17.70;99.90
20833;DHT22;56075;51.264;7.150;2022-08-21T07:38:35;17.50;99.90
20833;DHT22;56075;51.264;7.150;2022-08-21T07:41:18;18.60;99.90
20833;DHT22;56075;51.264;7.150;2022-08-21T07:43:49;17.70;99.90
20833;DHT22;56075;51.264;7.150;2022-08-21T07:46:21;17.70;99.90
20833;DHT22;56075;51.264;7.150;2022-08-21T07:48:52;18.90;99.90
20833;DHT22;56075;51.264;7.150;2022-08-21T07:51:26;17.80;99.90
20833;DHT22;56075;51.264;7.150;2022-08-21T07:53:58;17.80;99.90
20833;DHT22;56075;51.264;7.150;2022-08-21T07:56:31;17.80;99.90
20833;DHT22;56075;51.264;7.150;2022-08-21T07:59:02;18.80;99.90
20833;DHT22;56075;51.264;7.150;2022-08-21T08:01:33;18.50;99.90
20833;DHT22;56075;51.264;7.150;2022-08-21T08:04:04;17.90;99.90
20833;DHT22;56075;51.264;7.150;2022-08-21T08:06:35;18.10;99.90
20833;DHT22;56075;51.264;7.150;2022-08-21T08:09:07;19.20;99.90
20833;DHT22;56075;51.264;7.150;2022-08-21T08:11:41;18.70;99.90
20833;DHT22;56075;51.264;7.150;2022-08-21T08:14:14;18.40;99.90
20833;DHT22;56075;51.264;7.150;2022-08-21T08:16:46;19.20;99.90
20833;DHT22;56075;51.264;7.150;2022-08-21T08:19:18;19.50;99.90
20833;DHT22;56075;51.264;7.150;2022-08-21T08:21:49;18.50;99.90
20833;DHT22;56075;51.264;7.150;2022-08-21T08:24:20;18.30;99.90
20833;DHT22;56075;51.264;7.150;2022-08-21T08:26:51;18.60;99.90
20833;DHT22;56075;51.264;7.150;2022-08-21T08:29:24;19.70;99.90
20833;DHT22;56075;51.264;7.150;2022-08-21T08:31:56;18.60;99.90
20833;DHT22;56075;51.264;7.150;2022-08-21T08:34:27;18.60;99.90
20833;DHT22;56075;51.264;7.150;2022-08-21T08:36:58;18.70;99.90
20833;DHT22;56075;51.264;7.150;2022-08-21T08:39:30;18.70;99.60
20833;DHT22;56075;51.264;7.150;2022-08-21T08:42:21;19.40;99.60
20833;DHT22;56075;51.264;7.150;2022-08-21T08:45:04;18.80;99.00
20833;DHT22;56075;51.264;7.150;2022-08-21T08:47:39;19.60;99.30
20833;DHT22;56075;51.264;7.150;2022-08-21T08:53:17;19.00;98.70
20833;DHT22;56075;51.264;7.150;2022-08-21T08:55:52;20.70;99.20
20833;DHT22;56075;51.264;7.150;2022-08-21T08:58:27;19.20;98.70
20833;DHT22;56075;51.264;7.150;2022-08-21T09:00:59;19.10;98.60
20833;DHT22;56075;51.264;7.150;2022-08-21T09:03:39;19.30;98.60
20833;DHT22;56075;51.264;7.150;2022-08-21T09:12:24;19.60;97.90
20833;DHT22;56075;51.264;7.150;2022-08-21T09:15:14;19.40;97.70
20833;DHT22;56075;51.264;7.150;2022-08-21T09:18:20;19.40;97.60
20833;DHT22;56075;51.264;7.150;2022-08-21T09:27:02;19.80;97.40
20833;DHT22;56075;51.264;7.150;2022-08-21T09:29:48;19.90;97.30
20833;DHT22;56075;51.264;7.150;2022-08-21T09:32:24;19.90;97.00
20833;DHT22;56075;51.264;7.150;2022-08-21T09:37:50;19.70;96.60
20833;DHT22;56075;51.264;7.150;2022-08-21T09:40:44;19.80;96.60
20833;DHT22;56075;51.264;7.150;2022-08-21T09:43:21;20.00;96.70
20833;DHT22;56075;51.264;7.150;2022-08-21T09:46:25;20.50;96.90
20833;DHT22;56075;51.264;7.150;2022-08-21T09:49:00;19.80;96.30
20833;DHT22;56075;51.264;7.150;2022-08-21T09:51:35;17.30;95.90
20833;DHT22;56075;51.264;7.150;2022-08-21T09:59:54;20.10;95.80
20833;DHT22;56075;51.264;7.150;2022-08-21T10:02:34;19.00;95.80
20833;DHT22;56075;51.264;7.150;2022-08-21T10:05:17;20.20;95.90
20833;DHT22;56075;51.264;7.150;2022-08-21T10:07:50;20.40;95.70
20833;DHT22;56075;51.264;7.150;2022-08-21T10:10:32;20.40;95.80
20833;DHT22;56075;51.264;7.150;2022-08-21T10:13:10;20.20;95.60
20833;DHT22;56075;51.264;7.150;2022-08-21T10:21:14;20.40;94.80
20833;DHT22;56075;51.264;7.150;2022-08-21T10:24:09;20.30;94.70
20833;DHT22;56075;51.264;7.150;2022-08-21T10:27:02;20.50;94.60
20833;DHT22;56075;51.264;7.150;2022-08-21T10:29:47;21.60;94.80
20833;DHT22;56075;51.264;7.150;2022-08-21T10:38:19;21.00;93.20
20833;DHT22;56075;51.264;7.150;2022-08-21T10:41:04;21.30;93.20
20833;DHT22;56075;51.264;7.150;2022-08-21T10:43:51;20.80;93.40
20833;DHT22;56075;51.264;7.150;2022-08-21T10:46:46;21.00;93.40
20833;DHT22;56075;51.264;7.150;2022-08-21T10:52:22;21.10;93.10
20833;DHT22;56075;51.264;7.150;2022-08-21T10:55:02;21.10;92.60
20833;DHT22;56075;51.264;7.150;2022-08-21T10:57:49;21.50;93.00
20833;DHT22;56075;51.264;7.150;2022-08-21T11:00:23;21.30;92.30
20833;DHT22;56075;51.264;7.150;2022-08-21T11:03:10;21.40;92.50
20833;DHT22;56075;51.264;7.150;2022-08-21T11:05:51;21.80;92.30
20833;DHT22;56075;51.264;7.150;2022-08-21T11:08:33;21.70;92.10
20833;DHT22;56075;51.264;7.150;2022-08-21T11:11:14;22.60;92.00
20833;DHT22;56075;51.264;7.150;2022-08-21T11:13:53;22.00;91.60
20833;DHT22;56075;51.264;7.150;2022-08-21T11:16:49;22.00;91.00
20833;DHT22;56075;51.264;7.150;2022-08-21T11:19:28;22.10;90.70
20833;DHT22;56075;51.264;7.150;2022-08-21T11:30:03;22.50;89.50
20833;DHT22;56075;51.264;7.150;2022-08-21T11:35:51;22.90;88.40
20833;DHT22;56075;51.264;7.150;2022-08-21T11:38:48;23.40;89.70
20833;DHT22;56075;51.264;7.150;2022-08-21T11:44:32;23.20;87.70
20833;DHT22;56075;51.264;7.150;2022-08-21T11:47:42;23.30;86.80
20833;DHT22;56075;51.264;7.150;2022-08-21T11:50:22;23.40;86.70
20833;DHT22;56075;51.264;7.150;2022-08-21T11:53:24;23.70;87.70
20833;DHT22;56075;51.264;7.150;2022-08-21T11:58:40;23.50;87.10
20833;DHT22;56075;51.264;7.150;2022-08-21T12:01:20;23.50;86.40
20833;DHT22;56075;51.264;7.150;2022-08-21T12:04:03;23.90;85.50
20833;DHT22;56075;51.264;7.150;2022-08-21T12:06:40;24.00;83.50
20833;DHT22;56075;51.264;7.150;2022-08-21T12:14:43;24.60;82.00
20833;DHT22;56075;51.264;7.150;2022-08-21T12:17:23;24.60;81.30
20833;DHT22;56075;51.264;7.150;2022-08-21T12:19:59;24.70;80.70
20833;DHT22;56075;51.264;7.150;2022-08-21T12:22:40;24.80;80.40
20833;DHT22;56075;51.264;7.150;2022-08-21T12:25:17;24.80;79.70
20833;DHT22;56075;51.264;7.150;2022-08-21T12:27:53;25.00;79.10
20833;DHT22;56075;51.264;7.150;2022-08-21T12:30:33;24.80;78.60
20833;DHT22;56075;51.264;7.150;2022-08-21T12:33:19;25.20;78.50
20833;DHT22;56075;51.264;7.150;2022-08-21T12:35:53;25.20;77.40
20833;DHT22;56075;51.264;7.150;2022-08-21T12:38:46;25.30;77.30
20833;DHT22;56075;51.264;7.150;2022-08-21T12:41:24;25.20;76.70
20833;DHT22;56075;51.264;7.150;2022-08-21T12:44:17;25.50;76.50
20833;DHT22;56075;51.264;7.150;2022-08-21T12:46:56;25.30;76.20
20833;DHT22;56075;51.264;7.150;2022-08-21T12:49:33;25.30;76.50
20833;DHT22;56075;51.264;7.150;2022-08-21T12:52:14;26.00;76.70
20833;DHT22;56075;51.264;7.150;2022-08-21T12:54:48;25.30;75.90
20833;DHT22;56075;51.264;7.150;2022-08-21T12:57:22;25.10;76.40
20833;DHT22;56075;51.264;7.150;2022-08-21T12:59:59;25.80;76.30
20833;DHT22;56075;51.264;7.150;2022-08-21T13:02:36;25.40;75.60
20833;DHT22;56075;51.264;7.150;2022-08-21T13:05:14;25.70;75.10
20833;DHT22;56075;51.264;7.150;2022-08-21T13:07:47;25.90;74.50
20833;DHT22;56075;51.264;7.150;2022-08-21T13:10:23;26.10;73.80
20833;DHT22;56075;51.264;7.150;2022-08-21T13:13:10;26.00;72.10
20833;DHT22;56075;51.264;7.150;2022-08-21T13:15:43;26.00;71.50
20833;DHT22;56075;51.264;7.150;2022-08-21T13:18:25;26.20;73.20
20833;DHT22;56075;51.264;7.150;2022-08-21T13:21:10;25.10;70.90
20833;DHT22;56075;51.264;7.150;2022-08-21T13:23:43;25.90;70.80
20833;DHT22;56075;51.264;7.150;2022-08-21T13:26:19;25.90;72.40
20833;DHT22;56075;51.264;7.150;2022-08-21T13:28:51;25.90;70.90
20833;DHT22;56075;51.264;7.150;2022-08-21T13:31:27;26.00;72.60
20833;DHT22;56075;51.264;7.150;2022-08-21T13:33:58;25.80;72.10
20833;DHT22;56075;51.264;7.150;2022-08-21T13:36:32;26.10;72.00
20833;DHT22;56075;51.264;7.150;2022-08-21T13:39:08;26.10;71.30
20833;DHT22;56075;51.264;7.150;2022-08-21T13:41:43;26.20;71.00
20833;DHT22;56075;51.264;7.150;2022-08-21T13:44:21;26.30;70.90
20833;DHT22;56075;51.264;7.150;2022-08-21T13:46:53;26.20;71.00
20833;DHT22;56075;51.264;7.150;2022-08-21T13:49:38;26.50;71.10
20833;DHT22;56075;51.264;7.150;2022-08-21T13:52:21;26.50;71.10
20833;DHT22;56075;51.264;7.150;2022-08-21T13:54:57;26.40;70.50
20833;DHT22;56075;51.264;7.150;2022-08-21T13:57:33;26.80;70.60
20833;DHT22;56075;51.264;7.150;2022-08-21T14:00:17;26.50;70.10
20833;DHT22;56075;51.264;7.150;2022-08-21T14:02:51;26.70;68.60
20833;DHT22;56075;51.264;7.150;2022-08-21T14:05:29;27.10;68.80
20833;DHT22;56075;51.264;7.150;2022-08-21T14:08:08;27.30;68.10
20833;DHT22;56075;51.264;7.150;2022-08-21T14:10:48;27.40;66.60
20833;DHT22;56075;51.264;7.150;2022-08-21T14:13:29;27.20;67.50
20833;DHT22;56075;51.264;7.150;2022-08-21T14:21:42;26.90;68.80
20833;DHT22;56075;51.264;7.150;2022-08-21T14:27:03;27.10;67.00
20833;DHT22;56075;51.264;7.150;2022-08-21T14:29:40;27.10;64.80
20833;DHT22;56075;51.264;7.150;2022-08-21T14:32:15;27.30;65.60
20833;DHT22;56075;51.264;7.150;2022-08-21T14:34:47;30.10;66.80
20833;DHT22;56075;51.264;7.150;2022-08-21T14:37:18;29.20;64.70
20833;DHT22;56075;51.264;7.150;2022-08-21T14:39:50;30.60;65.60
20833;DHT22;56075;51.264;7.150;2022-08-21T14:42:21;28.80;63.30
20833;DHT22;56075;51.264;7.150;2022-08-21T14:44:53;28.80;62.30
20833;DHT22;56075;51.264;7.150;2022-08-21T14:47:26;28.80;62.30
20833;DHT22;56075;51.264;7.150;2022-08-21T14:49:59;28.90;62.40
20833;DHT22;56075;51.264;7.150;2022-08-21T14:52:30;28.90;61.80
20833;DHT22;56075;51.264;7.150;2022-08-21T14:55:01;29.20;61.20
20833;DHT22;56075;51.264;7.150;2022-08-21T14:57:33;29.50;60.80
20833;DHT22;56075;51.264;7.150;2022-08-21T15:00:06;29.70;60.30
20833;DHT22;56075;51.264;7.150;2022-08-21T15:02:38;29.90;59.30
20833;DHT22;56075;51.264;7.150;2022-08-21T15:05:10;30.20;59.20
20833;DHT22;56075;51.264;7.150;2022-08-21T15:07:41;30.30;58.70
20833;DHT22;56075;51.264;7.150;2022-08-21T15:10:12;30.50;58.00
20833;DHT22;56075;51.264;7.150;2022-08-21T15:12:43;30.50;57.30
20833;DHT22;56075;51.264;7.150;2022-08-21T15:15:15;30.60;57.10
20833;DHT22;56075;51.264;7.150;2022-08-21T15:17:46;30.60;56.60
20833;DHT22;56075;51.264;7.150;2022-08-21T15:20:17;31.20;56.80
20833;DHT22;56075;51.264;7.150;2022-08-21T15:22:48;30.40;56.80
20833;DHT22;56075;51.264;7.150;2022-08-21T15:25:19;30.60;56.60
20833;DHT22;56075;51.264;7.150;2022-08-21T15:27:50;31.30;57.00
20833;DHT22;56075;51.264;7.150;2022-08-21T15:30:22;31.00;56.90
20833;DHT22;56075;51.264;7.150;2022-08-21T15:32:53;30.50;56.80
20833;DHT22;56075;51.264;7.150;2022-08-21T15:35:24;30.30;57.10
20833;DHT22;56075;51.264;7.150;2022-08-21T15:37:55;29.90;57.10
20833;DHT22;56075;51.264;7.150;2022-08-21T15:40:27;29.80;58.40
20833;DHT22;56075;51.264;7.150;2022-08-21T15:43:00;29.70;58.90
20833;DHT22;56075;51.264;7.150;2022-08-21T15:45:33;29.60;58.90
20833;DHT22;56075;51.264;7.150;2022-08-21T15:48:04;30.60;59.20
20833;DHT22;56075;51.264;7.150;2022-08-21T15:50:35;29.70;58.50
20833;DHT22;56075;51.264;7.150;2022-08-21T15:53:06;30.10;59.30
20833;DHT22;56075;51.264;7.150;2022-08-21T15:55:38;29.10;59.40
20833;DHT22;56075;51.264;7.150;2022-08-21T15:58:15;29.10;59.90
20833;DHT22;56075;51.264;7.150;2022-08-21T16:00:46;29.10;59.90
20833;DHT22;56075;51.264;7.150;2022-08-21T16:03:18;29.00;60.00
20833;DHT22;56075;51.264;7.150;2022-08-21T16:05:52;29.10;60.20
20833;DHT22;56075;51.264;7.150;2022-08-21T16:08:26;29.00;59.80
20833;DHT22;56075;51.264;7.150;2022-08-21T16:10:57;29.00;59.60
20833;DHT22;56075;51.264;7.150;2022-08-21T16:13:36;29.30;59.80
20833;DHT22;56075;51.264;7.150;2022-08-21T16:16:10;28.80;58.70
20833;DHT22;56075;51.264;7.150;2022-08-21T16:18:43;28.70;60.20
20833;DHT22;56075;51.264;7.150;2022-08-21T16:21:14;28.50;60.50
20833;DHT22;56075;51.264;7.150;2022-08-21T16:23:46;28.60;60.50
20833;DHT22;56075;51.264;7.150;2022-08-21T16:26:17;29.10;61.00
20833;DHT22;56075;51.264;7.150;2022-08-21T16:28:49;29.40;61.60
20833;DHT22;56075;51.264;7.150;2022-08-21T16:31:21;28.10;61.20
20833;DHT22;56075;51.264;7.150;2022-08-21T16:33:55;28.20;61.40
20833;DHT22;56075;51.264;7.150;2022-08-21T16:36:27;28.10;61.50
20833;DHT22;56075;51.264;7.150;2022-08-21T16:38:59;27.90;61.50
20833;DHT22;56075;51.264;7.150;2022-08-21T16:41:34;27.90;61.20
20833;DHT22;56075;51.264;7.150;2022-08-21T16:44:06;27.90;62.10
20833;DHT22;56075;51.264;7.150;2022-08-21T16:46:39;27.70;62.20
20833;DHT22;56075;51.264;7.150;2022-08-21T16:49:11;27.50;62.40
20833;DHT22;56075;51.264;7.150;2022-08-21T16:51:42;27.50;62.70
20833;DHT22;56075;51.264;7.150;2022-08-21T16:54:13;28.50;63.90
20833;DHT22;56075;51.264;7.150;2022-08-21T16:56:45;27.30;63.10
20833;DHT22;56075;51.264;7.150;2022-08-21T16:59:16;27.30;63.30
20833;DHT22;56075;51.264;7.150;2022-08-21T17:01:47;27.20;64.30
20833;DHT22;56075;51.264;7.150;2022-08-21T17:04:18;27.10;63.90
20833;DHT22;56075;51.264;7.150;2022-08-21T17:06:50;27.00;64.50
20833;DHT22;56075;51.264;7.150;2022-08-21T17:09:23;26.90;64.90
20833;DHT22;56075;51.264;7.150;2022-08-21T17:11:54;26.60;65.00
20833;DHT22;56075;51.264;7.150;2022-08-21T17:14:25;26.70;65.50
20833;DHT22;56075;51.264;7.150;2022-08-21T17:16:56;26.50;65.70
20833;DHT22;56075;51.264;7.150;2022-08-21T17:19:28;27.10;66.90
20833;DHT22;56075;51.264;7.150;2022-08-21T17:22:00;26.20;66.40
20833;DHT22;56075;51.264;7.150;2022-08-21T17:24:33;26.20;66.60
20833;DHT22;56075;51.264;7.150;2022-08-21T17:27:05;27.10;67.80
20833;DHT22;56075;51.264;7.150;2022-08-21T17:29:38;26.10;67.30
20833;DHT22;56075;51.264;7.150;2022-08-21T17:32:17;26.00;67.50